Terminal Aerodrome Forecast
Issued by NWS

Current Version | Previous Version | Text Only | Print | Product List | Glossary On
Versions: 1 2 3 4 5 6 7 8 9 10 11 12 13 14 15 16 17 18 19 20 21
000
FTUS41 KPBZ 302000 AAA
TAFFKL
TAF AMD
KFKL 302000Z 3020/3118 25008KT P6SM BKN040
      TEMPO 3020/3022 6SM -RA BKN030
     FM310900 VRB02KT 2SM BR SCT250
     FM311400 23005KT P6SM BKN250
      AMD LTD TO CLD VIS AND WIND=

USA.gov is the U.S. government's official web portal to all federal, state and local government web resources and services.